Time;durP1;ratioP1;P1;durP2;ratioP2;P2;SDS_P1;SDS_P2;PMS_P1;PMS_P2;Temp;Humidity;BMP_temperature;BMP_pressure;BME280_temperature;BME280_humidity;BME280_pressure;Samples;Min_cycle;Max_cycle;Signal;HPM_P1;HPM_P2
2023/12/28 00:00:19;;;;;;;2.10;2.00;;;;;;;;;;1024829;28;20011;-73
2023/12/28 00:00:50;;;;;;;1.92;1.83;;;;;;;;;;1024546;28;20062;-74
2023/12/28 00:01:22;;;;;;;3.55;1.83;;;;;;;;;;1028660;28;20106;-73
2023/12/28 00:01:52;;;;;;;1.77;1.67;;;;;;;;;;1025140;28;20015;-73
2023/12/28 00:02:23;;;;;;;1.75;1.08;;;;;;;;;;1029211;28;20023;-74
2023/12/28 00:02:53;;;;;;;2.78;2.58;;;;;;;;;;1027609;28;20109;-73
2023/12/28 00:03:24;;;;;;;0.95;0.95;;;;;;;;;;1020665;28;20030;-73
2023/12/28 00:03:54;;;;;;;1.65;1.50;;;;;;;;;;1021670;28;20034;-73
2023/12/28 00:04:25;;;;;;;1.02;1.02;;;;;;;;;;1021846;28;20028;-73
2023/12/28 00:04:55;;;;;;;1.15;1.15;;;;;;;;;;1021459;29;20465;-74
2023/12/28 00:05:26;;;;;;;3.65;0.80;;;;;;;;;;1021053;29;20028;-74
2023/12/28 00:05:56;;;;;;;0.75;0.75;;;;;;;;;;1018564;29;20047;-74
2023/12/28 00:06:27;;;;;;;0.93;0.93;;;;;;;;;;1019358;29;20501;-74
2023/12/28 00:06:57;;;;;;;8.55;2.42;;;;;;;;;;1019314;29;20027;-74
2023/12/28 00:07:28;;;;;;;2.72;2.53;;;;;;;;;;1023190;29;20020;-74
2023/12/28 00:07:59;;;;;;;2.85;2.47;;;;;;;;;;1021668;29;20078;-73
2023/12/28 00:08:31;;;;;;;1.60;1.50;;;;;;;;;;1021966;29;20411;-73
2023/12/28 00:09:02;;;;;;;2.92;2.30;;;;;;;;;;1021496;29;20035;-73
2023/12/28 00:09:32;;;;;;;5.32;2.90;;;;;;;;;;1021655;29;20532;-73
2023/12/28 00:10:03;;;;;;;1.30;1.20;;;;;;;;;;1021465;29;20034;-73
2023/12/28 00:10:36;;;;;;;3.70;1.27;;;;;;;;;;1021160;29;20026;-72
2023/12/28 00:11:07;;;;;;;1.90;1.80;;;;;;;;;;1021298;28;20031;-73
2023/12/28 00:11:38;;;;;;;3.42;3.13;;;;;;;;;;1021140;29;20027;-73
2023/12/28 00:12:08;;;;;;;2.40;2.20;;;;;;;;;;1021270;29;20071;-73
2023/12/28 00:12:39;;;;;;;2.30;1.40;;;;;;;;;;1021511;29;20142;-73
2023/12/28 00:13:09;;;;;;;4.15;3.78;;;;;;;;;;1021213;29;20027;-74
2023/12/28 00:13:40;;;;;;;3.70;2.50;;;;;;;;;;1021600;29;20027;-73
2023/12/28 00:14:10;;;;;;;6.82;1.20;;;;;;;;;;1021753;28;20054;-73
2023/12/28 00:14:41;;;;;;;2.95;2.28;;;;;;;;;;1021686;28;20019;-73
2023/12/28 00:15:11;;;;;;;1.58;1.48;;;;;;;;;;1021457;29;20099;-73
2023/12/28 00:15:42;;;;;;;1.88;1.77;;;;;;;;;;1020517;28;20468;-73
2023/12/28 00:16:12;;;;;;;1.67;1.25;;;;;;;;;;1021451;29;20015;-73
2023/12/28 00:16:43;;;;;;;2.25;1.88;;;;;;;;;;1021616;29;20019;-73
2023/12/28 00:17:14;;;;;;;2.08;1.88;;;;;;;;;;1021486;29;20027;-73
2023/12/28 00:17:44;;;;;;;7.10;3.55;;;;;;;;;;1021692;29;20681;-73
2023/12/28 00:18:15;;;;;;;7.30;2.05;;;;;;;;;;1022335;29;20059;-73
2023/12/28 00:18:45;;;;;;;5.28;1.40;;;;;;;;;;1021716;28;20047;-73
2023/12/28 00:19:16;;;;;;;6.13;5.20;;;;;;;;;;1021458;28;20030;-73
2023/12/28 00:19:46;;;;;;;2.50;2.17;;;;;;;;;;1021025;28;20077;-73
2023/12/28 00:20:16;;;;;;;1.65;1.55;;;;;;;;;;1021394;29;20027;-73
2023/12/28 00:20:47;;;;;;;1.02;1.02;;;;;;;;;;1021428;28;20466;-73
2023/12/28 00:21:17;;;;;;;0.35;0.35;;;;;;;;;;1021264;29;20020;-74
2023/12/28 00:21:48;;;;;;;4.63;3.38;;;;;;;;;;1021717;28;20034;-73
2023/12/28 00:22:18;;;;;;;0.98;0.98;;;;;;;;;;1021469;28;20421;-73
2023/12/28 00:22:49;;;;;;;14.65;1.50;;;;;;;;;;1021286;29;20405;-73
2023/12/28 00:23:22;;;;;;;17.90;1.17;;;;;;;;;;1021235;29;20114;-73
2023/12/28 00:23:53;;;;;;;2.40;2.20;;;;;;;;;;1021003;29;20034;-73
2023/12/28 00:24:23;;;;;;;11.43;3.00;;;;;;;;;;1021326;29;20042;-73
2023/12/28 00:24:54;;;;;;;1.58;1.48;;;;;;;;;;1021052;29;20074;-73
2023/12/28 00:25:24;;;;;;;10.32;2.28;;;;;;;;;;1025070;28;20023;-73
2023/12/28 00:25:55;;;;;;;0.65;0.63;;;;;;;;;;1024518;28;20571;-73
2023/12/28 00:26:25;;;;;;;0.65;0.65;;;;;;;;;;1025156;28;20022;-73
2023/12/28 00:26:56;;;;;;;1.77;1.65;;;;;;;;;;1025082;28;20027;-73
2023/12/28 00:27:26;;;;;;;1.52;1.42;;;;;;;;;;1021722;29;20078;-73
2023/12/28 00:27:57;;;;;;;2.67;2.47;;;;;;;;;;1020500;29;20027;-74
2023/12/28 00:28:28;;;;;;;1.85;1.42;;;;;;;;;;1021681;29;20494;-73
2023/12/28 00:28:58;;;;;;;2.90;2.70;;;;;;;;;;1021578;29;20081;-73
2023/12/28 00:29:29;;;;;;;2.17;1.52;;;;;;;;;;1021139;29;20297;-73
2023/12/28 00:29:59;;;;;;;0.85;0.85;;;;;;;;;;1025029;28;20041;-74
2023/12/28 00:30:32;;;;;;;8.57;3.38;;;;;;;;;;1025996;28;20031;-74
2023/12/28 00:31:02;;;;;;;1.33;1.23;;;;;;;;;;1025422;28;20434;-75
2023/12/28 00:31:33;;;;;;;1.90;1.80;;;;;;;;;;1028585;28;20038;-74
2023/12/28 00:32:03;;;;;;;1.95;1.83;;;;;;;;;;1021675;28;20147;-73
2023/12/28 00:32:34;;;;;;;1.65;1.55;;;;;;;;;;1021256;29;20024;-73
2023/12/28 00:33:04;;;;;;;1.73;1.65;;;;;;;;;;1021194;29;20492;-73
2023/12/28 00:33:35;;;;;;;5.22;3.08;;;;;;;;;;1019242;29;20174;-73
2023/12/28 00:34:05;;;;;;;0.60;0.60;;;;;;;;;;1018450;29;20059;-74
2023/12/28 00:34:36;;;;;;;0.47;0.47;;;;;;;;;;1021352;29;20118;-73
2023/12/28 00:35:07;;;;;;;1.45;1.35;;;;;;;;;;1020952;29;20023;-73
2023/12/28 00:35:37;;;;;;;1.25;1.23;;;;;;;;;;1021492;28;20480;-73
2023/12/28 00:36:08;;;;;;;6.90;1.63;;;;;;;;;;1021247;28;20039;-73
2023/12/28 00:36:38;;;;;;;1.88;1.15;;;;;;;;;;1022561;28;20027;-73
2023/12/28 00:37:08;;;;;;;1.95;1.58;;;;;;;;;;1021641;29;20079;-74
2023/12/28 00:37:39;;;;;;;2.03;1.92;;;;;;;;;;1021459;29;20612;-73
2023/12/28 00:38:10;;;;;;;6.22;2.28;;;;;;;;;;1021430;29;20031;-74
2023/12/28 00:38:40;;;;;;;1.67;1.58;;;;;;;;;;1021550;29;20464;-73
2023/12/28 00:39:11;;;;;;;2.17;1.98;;;;;;;;;;1021445;29;20019;-73
2023/12/28 00:39:41;;;;;;;3.03;2.45;;;;;;;;;;1020850;29;20046;-73
2023/12/28 00:40:12;;;;;;;3.65;2.05;;;;;;;;;;1021065;29;20023;-73
2023/12/28 00:40:42;;;;;;;1.70;1.60;;;;;;;;;;1021243;28;20031;-73
2023/12/28 00:41:13;;;;;;;0.90;0.90;;;;;;;;;;1020932;29;20041;-73
2023/12/28 00:41:43;;;;;;;2.40;1.65;;;;;;;;;;1021576;29;20059;-73
2023/12/28 00:42:14;;;;;;;2.55;2.35;;;;;;;;;;1021020;29;20032;-73
2023/12/28 00:42:44;;;;;;;1.52;1.42;;;;;;;;;;1018590;29;20032;-72
2023/12/28 00:43:15;;;;;;;22.02;1.73;;;;;;;;;;1019107;29;20538;-72
2023/12/28 00:43:45;;;;;;;0.40;0.40;;;;;;;;;;1019468;29;20031;-72
2023/12/28 00:44:16;;;;;;;0.45;0.45;;;;;;;;;;1023159;29;20118;-73
2023/12/28 00:44:46;;;;;;;6.40;2.67;;;;;;;;;;1021716;29;20031;-74
2023/12/28 00:45:17;;;;;;;13.68;2.63;;;;;;;;;;1020748;29;20059;-73
2023/12/28 00:45:47;;;;;;;1.40;1.15;;;;;;;;;;1021485;28;20491;-73
2023/12/28 00:46:18;;;;;;;1.33;1.23;;;;;;;;;;1021517;28;20034;-72
2023/12/28 00:46:48;;;;;;;2.28;1.90;;;;;;;;;;1021389;28;20512;-72
2023/12/28 00:47:19;;;;;;;4.15;2.80;;;;;;;;;;1020882;29;20114;-73
2023/12/28 00:47:51;;;;;;;2.42;1.52;;;;;;;;;;1021344;29;20505;-72
2023/12/28 00:48:22;;;;;;;1.63;1.52;;;;;;;;;;1021428;29;20023;-72
2023/12/28 00:48:52;;;;;;;1.67;1.58;;;;;;;;;;1021187;29;20019;-72
2023/12/28 00:49:23;;;;;;;2.13;1.75;;;;;;;;;;1020922;29;20066;-72
2023/12/28 00:49:54;;;;;;;1.73;1.63;;;;;;;;;;1021089;29;20020;-72
2023/12/28 00:50:27;;;;;;;1.20;1.20;;;;;;;;;;1019008;29;20508;-72
2023/12/28 00:50:58;;;;;;;6.65;1.65;;;;;;;;;;1021959;28;20023;-73
2023/12/28 00:51:29;;;;;;;4.40;2.58;;;;;;;;;;1023063;29;20030;-73
2023/12/28 00:51:59;;;;;;;0.50;0.50;;;;;;;;;;1022535;28;20027;-72
2023/12/28 00:52:30;;;;;;;1.33;1.23;;;;;;;;;;1020393;29;20503;-73
2023/12/28 00:53:00;;;;;;;2.78;1.63;;;;;;;;;;1017352;29;20138;-74
2023/12/28 00:53:31;;;;;;;0.57;0.57;;;;;;;;;;1021136;29;20031;-73
2023/12/28 00:54:01;;;;;;;7.90;2.92;;;;;;;;;;1021306;29;20122;-73
2023/12/28 00:54:32;;;;;;;1.45;1.38;;;;;;;;;;1020590;29;20078;-73
2023/12/28 00:55:02;;;;;;;1.45;1.35;;;;;;;;;;1021976;29;20109;-74
2023/12/28 00:55:33;;;;;;;1.63;1.52;;;;;;;;;;1021544;28;20027;-73
2023/12/28 00:56:04;;;;;;;0.40;0.40;;;;;;;;;;1024683;28;20051;-74
2023/12/28 00:56:34;;;;;;;23.83;2.15;;;;;;;;;;1025001;28;20046;-73
2023/12/28 00:57:05;;;;;;;7.10;1.55;;;;;;;;;;1023175;28;20055;-74
2023/12/28 00:57:35;;;;;;;2.80;2.53;;;;;;;;;;1021144;29;20031;-75
2023/12/28 00:58:06;;;;;;;13.25;1.95;;;;;;;;;;1021286;29;20384;-73
2023/12/28 00:58:39;;;;;;;1.15;1.10;;;;;;;;;;1021781;28;20096;-74
2023/12/28 00:59:09;;;;;;;1.10;1.10;;;;;;;;;;1019834;29;20027;-74
2023/12/28 00:59:40;;;;;;;1.25;0.52;;;;;;;;;;1021609;28;20055;-75
2023/12/28 01:00:10;;;;;;;1.90;1.77;;;;;;;;;;1021103;28;20057;-75
2023/12/28 01:00:41;;;;;;;2.78;1.75;;;;;;;;;;1021658;28;20027;-74
2023/12/28 01:01:11;;;;;;;1.60;1.50;;;;;;;;;;1021168;29;20614;-73
2023/12/28 01:01:42;;;;;;;1.42;1.35;;;;;;;;;;1021408;28;20035;-75
2023/12/28 01:02:12;;;;;;;10.73;2.85;;;;;;;;;;1021544;28;20480;-73
2023/12/28 01:02:46;;;;;;;0.77;0.77;;;;;;;;;;1021409;28;20118;-73
2023/12/28 01:03:17;;;;;;;1.40;1.33;;;;;;;;;;1021270;29;20031;-72
2023/12/28 01:03:47;;;;;;;2.55;1.77;;;;;;;;;;1021464;29;20023;-73
2023/12/28 01:04:18;;;;;;;2.17;1.55;;;;;;;;;;1021271;29;20031;-73
2023/12/28 01:04:48;;;;;;;0.35;0.35;;;;;;;;;;1021913;29;20040;-73
2023/12/28 01:05:20;;;;;;;0.82;0.82;;;;;;;;;;1021215;29;20035;-73
2023/12/28 01:05:52;;;;;;;1.10;1.10;;;;;;;;;;1020886;29;20023;-74
2023/12/28 01:06:27;;;;;;;1.42;1.20;;;;;;;;;;1021087;29;20066;-73
2023/12/28 01:07:01;;;;;;;0.50;0.50;;;;;;;;;;1021122;29;20046;-73
2023/12/28 01:07:32;;;;;;;5.57;1.75;;;;;;;;;;1021116;29;20031;-74
2023/12/28 01:08:03;;;;;;;3.00;1.65;;;;;;;;;;1019971;29;20467;-74
2023/12/28 01:08:36;;;;;;;1.95;1.52;;;;;;;;;;1021320;29;20445;-73
2023/12/28 01:09:07;;;;;;;1.70;0.88;;;;;;;;;;1019957;29;20388;-75
2023/12/28 01:09:37;;;;;;;0.75;0.52;;;;;;;;;;1020829;28;20030;-73
2023/12/28 01:10:08;;;;;;;1.05;0.68;;;;;;;;;;1021192;29;20063;-74
2023/12/28 01:10:38;;;;;;;0.45;0.45;;;;;;;;;;1020267;29;20023;-74
2023/12/28 01:11:10;;;;;;;2.83;1.83;;;;;;;;;;1020971;28;20042;-74
2023/12/28 01:11:41;;;;;;;1.67;1.17;;;;;;;;;;1022208;29;20027;-73
2023/12/28 01:12:11;;;;;;;0.93;0.88;;;;;;;;;;1020592;29;20058;-73
2023/12/28 01:12:42;;;;;;;0.40;0.40;;;;;;;;;;1021207;29;20031;-73
2023/12/28 01:13:12;;;;;;;1.60;1.45;;;;;;;;;;1021435;29;20110;-73
2023/12/28 01:13:43;;;;;;;0.50;0.50;;;;;;;;;;1017984;29;20031;-75
2023/12/28 01:14:14;;;;;;;0.10;0.10;;;;;;;;;;1019965;29;20420;-74
2023/12/28 01:14:44;;;;;;;1.75;0.90;;;;;;;;;;1019679;29;20038;-74
2023/12/28 01:15:17;;;;;;;4.25;0.93;;;;;;;;;;1017605;29;20389;-74
2023/12/28 01:15:47;;;;;;;2.03;1.88;;;;;;;;;;1020343;28;20028;-73
2023/12/28 01:16:18;;;;;;;1.80;1.67;;;;;;;;;;1021810;29;20019;-74
2023/12/28 01:16:48;;;;;;;0.65;0.65;;;;;;;;;;1021785;29;20018;-74
2023/12/28 01:17:19;;;;;;;1.67;1.58;;;;;;;;;;1021779;29;20054;-74
2023/12/28 01:17:50;;;;;;;5.50;4.85;;;;;;;;;;1019707;29;20495;-74
2023/12/28 01:18:20;;;;;;;0.60;0.60;;;;;;;;;;1019963;29;20551;-73
2023/12/28 01:18:51;;;;;;;8.57;2.60;;;;;;;;;;1019766;29;20020;-72
2023/12/28 01:19:23;;;;;;;0.95;0.65;;;;;;;;;;1021608;29;20658;-72
2023/12/28 01:19:53;;;;;;;1.42;0.73;;;;;;;;;;1020234;29;20530;-72
2023/12/28 01:20:24;;;;;;;1.75;1.65;;;;;;;;;;1021820;29;20031;-72
2023/12/28 01:20:54;;;;;;;0.38;0.38;;;;;;;;;;1020097;28;20039;-72
2023/12/28 01:21:25;;;;;;;0.45;0.45;;;;;;;;;;1020532;29;20064;-72
2023/12/28 01:21:55;;;;;;;0.47;0.47;;;;;;;;;;1021387;28;20440;-74
2023/12/28 01:22:26;;;;;;;0.82;0.82;;;;;;;;;;1021542;29;20037;-73
2023/12/28 01:22:56;;;;;;;0.60;0.60;;;;;;;;;;1020463;29;20020;-74
2023/12/28 01:23:27;;;;;;;1.52;1.42;;;;;;;;;;1020747;29;20031;-74
2023/12/28 01:23:57;;;;;;;0.95;0.60;;;;;;;;;;1021635;29;20026;-75
2023/12/28 01:24:28;;;;;;;13.20;2.25;;;;;;;;;;1021428;29;20023;-74
2023/12/28 01:24:58;;;;;;;0.47;0.47;;;;;;;;;;1023148;28;20019;-74
2023/12/28 01:25:29;;;;;;;0.20;0.20;;;;;;;;;;1022823;29;20030;-74
2023/12/28 01:25:59;;;;;;;1.08;1.08;;;;;;;;;;1020731;28;21721;-73
2023/12/28 01:26:30;;;;;;;3.20;1.58;;;;;;;;;;1021506;29;20051;-74
2023/12/28 01:27:00;;;;;;;2.58;2.40;;;;;;;;;;1024339;28;20034;-74
2023/12/28 01:27:31;;;;;;;2.25;2.15;;;;;;;;;;1025092;28;20121;-72
2023/12/28 01:28:01;;;;;;;14.65;2.15;;;;;;;;;;1025631;28;20031;-73
2023/12/28 01:28:32;;;;;;;4.65;1.30;;;;;;;;;;1029450;28;20110;-75
2023/12/28 01:29:03;;;;;;;2.38;2.25;;;;;;;;;;1024745;28;20069;-75
2023/12/28 01:29:34;;;;;;;0.10;0.10;;;;;;;;;;1028609;28;20058;-75
2023/12/28 01:30:05;;;;;;;0.30;0.30;;;;;;;;;;1029015;28;20121;-75
2023/12/28 01:30:35;;;;;;;13.13;1.45;;;;;;;;;;1026232;28;20113;-76
2023/12/28 01:31:06;;;;;;;2.22;1.52;;;;;;;;;;1024015;28;20022;-75
2023/12/28 01:31:38;;;;;;;0.80;0.80;;;;;;;;;;1021356;29;20385;-74
2023/12/28 01:32:09;;;;;;;1.20;1.20;;;;;;;;;;1021867;29;20034;-73
2023/12/28 01:32:39;;;;;;;9.77;1.92;;;;;;;;;;1021552;29;20054;-76
2023/12/28 01:33:10;;;;;;;5.35;1.58;;;;;;;;;;1024995;28;20105;-73
2023/12/28 01:33:41;;;;;;;0.50;0.50;;;;;;;;;;1023957;28;21040;-75
2023/12/28 01:34:12;;;;;;;5.30;0.90;;;;;;;;;;1030084;28;20077;-74
2023/12/28 01:34:43;;;;;;;1.95;1.83;;;;;;;;;;1028772;28;20026;-75
2023/12/28 01:35:13;;;;;;;0.85;0.85;;;;;;;;;;1027525;28;20444;-73
2023/12/28 01:35:44;;;;;;;2.10;1.40;;;;;;;;;;1028568;28;20027;-73
2023/12/28 01:36:18;;;;;;;0.30;0.30;;;;;;;;;;1020527;29;20022;-74
2023/12/28 01:36:49;;;;;;;2.58;1.75;;;;;;;;;;1020423;29;20512;-74
2023/12/28 01:37:19;;;;;;;0.30;0.30;;;;;;;;;;1022285;29;20023;-76
2023/12/28 01:37:50;;;;;;;1.75;1.65;;;;;;;;;;1021288;29;20516;-74
2023/12/28 01:38:20;;;;;;;0.82;0.82;;;;;;;;;;1021484;29;20511;-75
2023/12/28 01:38:51;;;;;;;1.05;0.98;;;;;;;;;;1022143;29;20036;-75
2023/12/28 01:39:22;;;;;;;1.00;1.00;;;;;;;;;;1021993;28;20034;-75
2023/12/28 01:39:52;;;;;;;0.68;0.68;;;;;;;;;;1022015;28;20046;-75
2023/12/28 01:40:23;;;;;;;0.50;0.50;;;;;;;;;;1020678;29;20047;-75
2023/12/28 01:40:53;;;;;;;0.50;0.50;;;;;;;;;;1021992;28;20574;-75
2023/12/28 01:41:24;;;;;;;0.50;0.50;;;;;;;;;;1022316;29;20031;-75
2023/12/28 01:41:55;;;;;;;3.40;2.38;;;;;;;;;;1018169;29;20028;-74
2023/12/28 01:42:26;;;;;;;1.35;0.98;;;;;;;;;;1017937;29;20527;-73
2023/12/28 01:42:56;;;;;;;0.22;0.22;;;;;;;;;;1018034;29;20028;-74
2023/12/28 01:43:27;;;;;;;1.10;1.10;;;;;;;;;;1016691;29;20568;-76
2023/12/28 01:43:57;;;;;;;1.15;1.05;;;;;;;;;;1021100;29;20023;-73
2023/12/28 01:44:28;;;;;;;4.90;0.77;;;;;;;;;;1020884;29;20535;-73
2023/12/28 01:44:58;;;;;;;0.90;0.50;;;;;;;;;;1021791;29;20059;-74
2023/12/28 01:45:29;;;;;;;2.45;2.08;;;;;;;;;;1021229;29;20054;-75
2023/12/28 01:45:59;;;;;;;1.10;1.10;;;;;;;;;;1022944;28;20031;-74
2023/12/28 01:46:31;;;;;;;0.65;0.65;;;;;;;;;;1022258;28;20031;-75
2023/12/28 01:47:01;;;;;;;0.95;0.95;;;;;;;;;;1021728;29;20024;-75
2023/12/28 01:47:32;;;;;;;1.55;1.45;;;;;;;;;;1021221;29;20023;-77
2023/12/28 01:48:02;;;;;;;0.20;0.20;;;;;;;;;;1021923;28;20502;-75
2023/12/28 01:48:33;;;;;;;1.80;0.73;;;;;;;;;;1025650;28;20034;-75
2023/12/28 01:49:04;;;;;;;0.55;0.55;;;;;;;;;;1021780;29;20431;-74
2023/12/28 01:49:35;;;;;;;16.90;2.35;;;;;;;;;;1021453;29;20019;-74
2023/12/28 01:50:07;;;;;;;0.50;0.50;;;;;;;;;;1017377;29;20055;-74
2023/12/28 01:50:37;;;;;;;1.35;1.25;;;;;;;;;;1015970;29;20452;-75
2023/12/28 01:51:08;;;;;;;1.92;0.80;;;;;;;;;;1017545;29;20036;-75
2023/12/28 01:51:39;;;;;;;0.43;0.43;;;;;;;;;;1018657;29;20047;-75
2023/12/28 01:52:09;;;;;;;2.35;2.25;;;;;;;;;;1020273;29;20477;-76
2023/12/28 01:52:40;;;;;;;7.53;3.80;;;;;;;;;;1021393;29;20047;-74
2023/12/28 01:53:12;;;;;;;21.77;1.15;;;;;;;;;;1020032;29;20373;-74
2023/12/28 01:53:43;;;;;;;1.55;1.15;;;;;;;;;;1021244;29;20027;-75
2023/12/28 01:54:14;;;;;;;2.20;2.00;;;;;;;;;;1020367;29;20444;-74
2023/12/28 01:54:45;;;;;;;1.00;1.00;;;;;;;;;;1018832;29;20038;-75
2023/12/28 01:55:16;;;;;;;0.70;0.70;;;;;;;;;;1017954;29;20015;-74
2023/12/28 01:55:46;;;;;;;1.35;1.27;;;;;;;;;;1020336;29;20488;-76
2023/12/28 01:56:18;;;;;;;1.25;0.85;;;;;;;;;;1020307;29;20035;-75
2023/12/28 01:56:49;;;;;;;4.95;1.35;;;;;;;;;;1020985;28;20027;-76
2023/12/28 01:57:20;;;;;;;6.25;2.30;;;;;;;;;;1025225;28;20121;-75
2023/12/28 01:57:51;;;;;;;1.67;0.52;;;;;;;;;;1029024;28;20469;-75
2023/12/28 01:58:22;;;;;;;23.30;3.20;;;;;;;;;;1023265;28;20030;-75
2023/12/28 01:58:53;;;;;;;0.98;0.95;;;;;;;;;;1020394;28;20081;-74
2023/12/28 01:59:24;;;;;;;3.70;1.70;;;;;;;;;;1018420;29;20110;-74
2023/12/28 01:59:55;;;;;;;0.32;0.32;;;;;;;;;;1019597;29;20145;-73
2023/12/28 02:00:25;;;;;;;0.90;0.90;;;;;;;;;;1024531;28;20038;-75
2023/12/28 02:00:56;;;;;;;0.20;0.20;;;;;;;;;;1026967;28;20109;-75
2023/12/28 02:01:27;;;;;;;0.57;0.40;;;;;;;;;;1026140;28;20125;-75
2023/12/28 02:01:58;;;;;;;0.40;0.40;;;;;;;;;;1026946;28;20026;-74
2023/12/28 02:02:29;;;;;;;3.00;1.15;;;;;;;;;;1019183;29;20063;-75
2023/12/28 02:03:00;;;;;;;1.52;1.30;;;;;;;;;;1020359;29;20523;-75
2023/12/28 02:03:31;;;;;;;2.70;1.73;;;;;;;;;;1018850;29;20039;-73
2023/12/28 02:04:02;;;;;;;0.80;0.80;;;;;;;;;;1019532;29;20047;-74
2023/12/28 02:04:33;;;;;;;0.75;0.75;;;;;;;;;;1019187;29;20038;-77
2023/12/28 02:05:04;;;;;;;3.03;2.05;;;;;;;;;;1020588;29;20026;-75
2023/12/28 02:05:35;;;;;;;1.48;1.42;;;;;;;;;;1018711;29;20066;-73
2023/12/28 02:06:07;;;;;;;1.02;1.02;;;;;;;;;;1019516;28;20027;-73
2023/12/28 02:06:37;;;;;;;0.63;0.63;;;;;;;;;;1021137;29;20042;-74
2023/12/28 02:07:08;;;;;;;2.20;1.13;;;;;;;;;;1020005;29;20086;-74
2023/12/28 02:07:38;;;;;;;3.10;2.05;;;;;;;;;;1020688;29;20054;-75
2023/12/28 02:08:10;;;;;;;2.50;1.17;;;;;;;;;;1020016;29;20035;-73
2023/12/28 02:08:40;;;;;;;1.73;1.63;;;;;;;;;;1020527;29;20039;-74
2023/12/28 02:09:11;;;;;;;0.82;0.82;;;;;;;;;;1020290;28;20054;-74
2023/12/28 02:09:41;;;;;;;0.95;0.95;;;;;;;;;;1020630;28;20555;-76
2023/12/28 02:10:12;;;;;;;0.50;0.50;;;;;;;;;;1026809;28;20129;-75
2023/12/28 02:10:42;;;;;;;0.63;0.40;;;;;;;;;;1029119;28;20034;-73
2023/12/28 02:11:13;;;;;;;0.55;0.55;;;;;;;;;;1027544;28;20026;-74
2023/12/28 02:11:43;;;;;;;1.38;1.02;;;;;;;;;;1024032;28;20027;-75
2023/12/28 02:12:14;;;;;;;1.55;1.45;;;;;;;;;;1019697;29;20038;-74
2023/12/28 02:12:44;;;;;;;0.22;0.22;;;;;;;;;;1017501;29;20036;-74
2023/12/28 02:13:15;;;;;;;0.30;0.30;;;;;;;;;;1019075;29;20139;-74
2023/12/28 02:13:46;;;;;;;1.40;1.33;;;;;;;;;;1021000;29;20042;-73
2023/12/28 02:14:16;;;;;;;0.68;0.68;;;;;;;;;;1019908;29;20019;-74
2023/12/28 02:14:48;;;;;;;0.65;0.45;;;;;;;;;;1021007;29;20034;-75
2023/12/28 02:15:19;;;;;;;0.30;0.30;;;;;;;;;;1019599;29;20027;-74
2023/12/28 02:15:54;;;;;;;0.77;0.57;;;;;;;;;;1017980;29;20024;-75
2023/12/28 02:16:38;;;;;;;13.23;2.03;;;;;;;;;;1017817;29;20031;-76
2023/12/28 02:17:14;;;;;;;1.02;1.02;;;;;;;;;;1019229;28;20070;-74
2023/12/28 02:17:54;;;;;;;2.80;2.58;;;;;;;;;;1018381;29;20031;-73
2023/12/28 02:18:30;;;;;;;1.30;1.20;;;;;;;;;;1018182;29;20036;-73
2023/12/28 02:19:04;;;;;;;0.63;0.63;;;;;;;;;;1017600;29;20035;-73
2023/12/28 02:19:34;;;;;;;0.98;0.98;;;;;;;;;;1019456;29;20030;-73
2023/12/28 02:20:06;;;;;;;0.93;0.90;;;;;;;;;;1019055;29;20028;-76
2023/12/28 02:20:37;;;;;;;0.88;0.88;;;;;;;;;;1019483;29;20095;-74
2023/12/28 02:21:08;;;;;;;6.40;2.40;;;;;;;;;;1018532;28;20031;-75
2023/12/28 02:21:39;;;;;;;1.92;1.83;;;;;;;;;;1020846;29;20484;-74
2023/12/28 02:22:10;;;;;;;4.18;2.72;;;;;;;;;;1019871;28;20032;-75
2023/12/28 02:22:41;;;;;;;0.93;0.50;;;;;;;;;;1018241;29;20047;-73
2023/12/28 02:23:11;;;;;;;1.08;0.98;;;;;;;;;;1016840;29;20039;-73
2023/12/28 02:23:49;;;;;;;1.90;1.77;;;;;;;;;;1019751;29;20030;-73
2023/12/28 02:24:19;;;;;;;1.23;1.17;;;;;;;;;;1026550;28;20296;-73
2023/12/28 02:24:56;;;;;;;1.48;1.25;;;;;;;;;;1026974;28;20026;-72
2023/12/28 02:25:26;;;;;;;1.02;0.73;;;;;;;;;;1026240;28;20030;-72
2023/12/28 02:25:57;;;;;;;3.70;1.60;;;;;;;;;;1025650;28;20422;-73
2023/12/28 02:26:27;;;;;;;1.90;1.45;;;;;;;;;;1026703;28;20059;-73
2023/12/28 02:26:58;;;;;;;3.13;2.67;;;;;;;;;;1027949;28;20022;-72
2023/12/28 02:27:28;;;;;;;4.05;1.48;;;;;;;;;;1027548;28;20030;-73
2023/12/28 02:27:59;;;;;;;4.60;2.78;;;;;;;;;;1022397;28;20019;-73
2023/12/28 02:28:29;;;;;;;1.25;1.02;;;;;;;;;;1018751;29;20989;-74
2023/12/28 02:29:00;;;;;;;8.18;3.75;;;;;;;;;;1020844;29;20032;-73
2023/12/28 02:29:30;;;;;;;4.75;2.55;;;;;;;;;;1024606;28;20067;-73
2023/12/28 02:30:01;;;;;;;9.23;3.08;;;;;;;;;;1028558;28;20050;-73
2023/12/28 02:30:31;;;;;;;10.68;1.67;;;;;;;;;;1028897;28;20502;-74
2023/12/28 02:31:04;;;;;;;9.98;2.47;;;;;;;;;;1028702;28;20361;-73
2023/12/28 02:31:36;;;;;;;0.73;0.73;;;;;;;;;;1018325;28;20067;-73
2023/12/28 02:32:09;;;;;;;0.77;0.77;;;;;;;;;;1027059;28;20737;-74
2023/12/28 02:32:58;;;;;;;0.20;0.20;;;;;;;;;;1026124;28;20042;-73
2023/12/28 02:33:31;;;;;;;1.02;0.73;;;;;;;;;;1027095;28;20064;-74
2023/12/28 02:34:06;;;;;;;0.85;0.85;;;;;;;;;;1024763;28;20137;-73
2023/12/28 02:34:38;;;;;;;1.02;0.90;;;;;;;;;;1025088;28;20030;-75
2023/12/28 02:35:19;;;;;;;0.93;0.93;;;;;;;;;;1023500;28;20525;-74
2023/12/28 02:35:55;;;;;;;1.25;1.02;;;;;;;;;;1020028;28;20023;-73
2023/12/28 02:36:26;;;;;;;0.88;0.88;;;;;;;;;;1020658;29;20126;-73
2023/12/28 02:36:57;;;;;;;2.67;2.28;;;;;;;;;;1019381;29;20026;-73
2023/12/28 02:37:29;;;;;;;0.70;0.70;;;;;;;;;;1019425;29;20035;-73
2023/12/28 02:38:02;;;;;;;0.82;0.82;;;;;;;;;;1020648;28;20463;-74
2023/12/28 02:38:36;;;;;;;0.52;0.52;;;;;;;;;;1018391;29;20075;-75
2023/12/28 02:39:07;;;;;;;1.48;1.38;;;;;;;;;;1017836;29;20035;-73
2023/12/28 02:39:38;;;;;;;6.82;3.75;;;;;;;;;;1018457;29;20031;-74
2023/12/28 02:40:09;;;;;;;3.92;1.83;;;;;;;;;;1018508;29;20037;-74
2023/12/28 02:40:40;;;;;;;0.30;0.30;;;;;;;;;;1018147;29;20058;-74
2023/12/28 02:41:11;;;;;;;1.00;0.85;;;;;;;;;;1019107;29;20430;-73
2023/12/28 02:41:43;;;;;;;8.07;3.70;;;;;;;;;;1016972;29;20031;-73
2023/12/28 02:42:13;;;;;;;1.42;1.33;;;;;;;;;;1017237;28;20038;-73
2023/12/28 02:42:44;;;;;;;0.30;0.30;;;;;;;;;;1019098;29;20074;-73
2023/12/28 02:43:15;;;;;;;3.47;1.70;;;;;;;;;;1018375;29;20035;-73
2023/12/28 02:43:46;;;;;;;6.32;2.80;;;;;;;;;;1017281;29;20082;-73
2023/12/28 02:44:18;;;;;;;1.42;1.20;;;;;;;;;;1018573;29;20079;-73
2023/12/28 02:44:49;;;;;;;3.50;2.05;;;;;;;;;;1018574;29;20036;-73
2023/12/28 02:45:20;;;;;;;5.72;1.08;;;;;;;;;;1014771;29;20024;-74
2023/12/28 02:45:51;;;;;;;5.47;3.63;;;;;;;;;;1015219;29;20020;-75
2023/12/28 02:46:21;;;;;;;1.10;1.00;;;;;;;;;;1016607;29;20803;-74
2023/12/28 02:46:52;;;;;;;0.90;0.88;;;;;;;;;;1019582;29;20027;-75
2023/12/28 02:47:23;;;;;;;0.55;0.55;;;;;;;;;;1021800;28;20063;-75
2023/12/28 02:47:53;;;;;;;2.63;1.38;;;;;;;;;;1023045;28;20038;-74
2023/12/28 02:48:25;;;;;;;0.47;0.47;;;;;;;;;;1020089;29;20055;-75
2023/12/28 02:48:57;;;;;;;0.82;0.73;;;;;;;;;;1022706;28;20123;-74
2023/12/28 02:49:27;;;;;;;1.10;1.10;;;;;;;;;;1019379;28;20166;-74
2023/12/28 02:49:59;;;;;;;2.28;1.85;;;;;;;;;;1019250;29;20627;-76
2023/12/28 02:50:32;;;;;;;5.63;1.48;;;;;;;;;;1021468;29;20035;-74
2023/12/28 02:51:03;;;;;;;2.95;2.65;;;;;;;;;;1011367;29;20067;-75
2023/12/28 02:51:35;;;;;;;1.35;1.27;;;;;;;;;;1020321;28;20451;-74
2023/12/28 02:52:06;;;;;;;25.55;3.13;;;;;;;;;;1020293;28;20026;-75
2023/12/28 02:52:36;;;;;;;2.80;1.42;;;;;;;;;;1019064;29;20101;-74
2023/12/28 02:53:07;;;;;;;6.75;4.93;;;;;;;;;;1014691;29;20032;-75
2023/12/28 02:53:37;;;;;;;2.20;2.08;;;;;;;;;;1010136;29;20036;-73
2023/12/28 02:54:08;;;;;;;0.75;0.75;;;;;;;;;;1015333;29;20039;-75
2023/12/28 02:54:38;;;;;;;1.73;1.27;;;;;;;;;;1019146;29;20162;-74
2023/12/28 02:55:09;;;;;;;1.42;1.35;;;;;;;;;;1018514;29;20031;-74
2023/12/28 02:55:39;;;;;;;0.68;0.68;;;;;;;;;;1017351;29;20125;-75
2023/12/28 02:56:10;;;;;;;0.65;0.65;;;;;;;;;;1025349;28;20069;-73
2023/12/28 02:56:41;;;;;;;1.50;1.23;;;;;;;;;;1024438;28;20056;-73
2023/12/28 02:57:11;;;;;;;3.63;1.15;;;;;;;;;;1024790;28;20597;-73
2023/12/28 02:57:43;;;;;;;1.02;0.90;;;;;;;;;;1026536;28;20519;-73
2023/12/28 02:58:14;;;;;;;0.17;0.17;;;;;;;;;;1019074;29;20508;-73
2023/12/28 02:58:45;;;;;;;0.60;0.60;;;;;;;;;;1018790;28;20032;-73
2023/12/28 02:59:15;;;;;;;0.63;0.63;;;;;;;;;;1016513;29;20030;-73
2023/12/28 02:59:46;;;;;;;1.25;1.15;;;;;;;;;;1015924;29;20480;-74
2023/12/28 03:00:17;;;;;;;3.47;0.90;;;;;;;;;;1017365;29;20629;-74
2023/12/28 03:00:48;;;;;;;0.28;0.28;;;;;;;;;;1018779;28;20037;-74
2023/12/28 03:01:19;;;;;;;1.98;1.85;;;;;;;;;;1022312;28;20126;-73
2023/12/28 03:01:49;;;;;;;1.52;1.30;;;;;;;;;;1027491;28;20133;-75
2023/12/28 03:02:20;;;;;;;0.10;0.10;;;;;;;;;;1024527;28;20034;-73
2023/12/28 03:02:51;;;;;;;3.20;1.85;;;;;;;;;;1024881;28;20142;-74
2023/12/28 03:03:22;;;;;;;1.48;1.38;;;;;;;;;;1020027;28;20613;-75
2023/12/28 03:03:52;;;;;;;0.40;0.40;;;;;;;;;;1025216;28;20660;-74
2023/12/28 03:04:23;;;;;;;1.30;0.93;;;;;;;;;;1023661;28;20034;-74
2023/12/28 03:04:54;;;;;;;4.60;1.00;;;;;;;;;;1021465;28;20043;-73
2023/12/28 03:05:25;;;;;;;0.85;0.85;;;;;;;;;;1020026;28;20035;-73
2023/12/28 03:05:56;;;;;;;0.38;0.38;;;;;;;;;;1017213;29;20415;-74
2023/12/28 03:06:27;;;;;;;2.15;1.00;;;;;;;;;;1017251;29;20488;-75